Bl Darnell — WDE5130 — position and weather

sailwx.info

Track history (hours):
 
Tides and Currents Weather Stations Pressure Air Temp Water Temp Dewpoint Dewpoint Depression Visibility Wind Speed Wind Dir Waves Ship Positions

Bl Darnell

Owner: The Tug BL Darnell, L.L.C., Channelview, TX. More information available from US FCC via Universal Licensing System and Coast Guard Vessel Documentation Center.

Last reported at 2018-Feb-22 00:24 UTC. Time now 2018-Feb-22 04:20 UTC.
Position N 29°46' W 095°05'.

Length 22 m.

Type: Other ship. MMSI: 367362460.

Date/timePositionNaut miles runAvg speedWind from/ knotsBaromVisibWave heightAir tempDewpointWater temp
2018-Feb-22 00:24N 29°46' W 095°05'2 4.9
2018-Feb-22 00:00N 29°44' W 095°03'2 4.6
2018-Feb-21 23:30N 29°43' W 095°01'3 5.1
2018-Feb-21 23:00N 29°41' W 094°59'0 0.8
2018-Feb-21 22:30N 29°41' W 094°58'0 0.1
2018-Feb-21 22:00N 29°41' W 094°59'3 0.2
2018-Feb-21 07:57N 29°43' W 094°56'1 0.4
2018-Feb-21 06:13N 29°43' W 094°57'1 2.6
2018-Feb-21 05:59N 29°43' W 094°56'1 2.0
2018-Feb-21 05:29N 29°42' W 094°56'1 1.2
2018-Feb-21 05:00N 29°42' W 094°55'1 2.6
2018-Feb-21 04:29N 29°41' W 094°56'2 3.5
2018-Feb-21 03:50N 29°41' W 094°59'1 3.3
2018-Feb-21 03:30N 29°42' W 094°60'2 3.6
2018-Feb-21 03:00N 29°43' W 095°01'2 4.1
2018-Feb-21 02:26N 29°44' W 095°04'9 1.5
2018-Feb-20 20:31N 29°43' W 095°14'0 6.1
2018-Feb-20 20:29N 29°44' W 095°14'3 5.9
2018-Feb-20 19:59N 29°45' W 095°11'3 6.4
2018-Feb-20 19:29N 29°44' W 095°07'4 4.6
2018-Feb-20 18:36N 29°47' W 095°04'0 0.0
2018-Feb-20 18:21N 29°47' W 095°04'0 0.0
2018-Feb-20 17:43N 29°47' W 095°04'0 0.0
2018-Feb-20 17:24N 29°47' W 095°04'2 2.9
2018-Feb-20 16:36N 29°46' W 095°06'0 0.1
2018-Feb-20 16:30N 29°46' W 095°06'0 0.0
2018-Feb-20 15:53N 29°46' W 095°06'0 0.0
2018-Feb-20 15:30N 29°46' W 095°06'0 0.0
2018-Feb-20 14:51N 29°46' W 095°06'0 0.0
2018-Feb-20 14:25N 29°46' W 095°06'0 0.0
2018-Feb-20 13:56N 29°46' W 095°06'0 0.0
2018-Feb-20 13:28N 29°46' W 095°06'0 0.0
2018-Feb-20 08:20N 29°46' W 095°06'0 0.0
2018-Feb-20 07:56N 29°46' W 095°06'0 0.0
2018-Feb-20 07:29N 29°46' W 095°06'0 0.0
2018-Feb-20 07:00N 29°46' W 095°06'0 0.0
2018-Feb-20 06:30N 29°46' W 095°06'0 0.0
2018-Feb-20 05:59N 29°46' W 095°06'0 0.0
2018-Feb-20 05:30N 29°46' W 095°06'0 0.0
2018-Feb-20 05:00N 29°46' W 095°06'0 0.0
2018-Feb-20 04:30N 29°46' W 095°06'0 0.0
2018-Feb-20 03:58N 29°46' W 095°06'0 0.0
2018-Feb-20 03:30N 29°46' W 095°06'0 0.0
2018-Feb-20 02:58N 29°46' W 095°06'0 0.0
2018-Feb-20 02:30N 29°46' W 095°06'0 0.0
2018-Feb-20 01:56N 29°46' W 095°06'0 0.0
2018-Feb-20 01:30N 29°46' W 095°06'0 0.0
2018-Feb-20 00:59N 29°46' W 095°06'0 0.0
2018-Feb-19 23:16N 29°46' W 095°06'0 0.0
2018-Feb-19 22:59N 29°46' W 095°06'0 0.0
2018-Feb-19 22:30N 29°46' W 095°06'1 1.3
2018-Feb-19 21:23N 29°46' W 095°05'2 4.9
2018-Feb-19 21:00N 29°44' W 095°03'2 3.5
2018-Feb-19 20:30N 29°44' W 095°01'0 0.0
2018-Feb-19 19:56N 29°44' W 095°01'0 0.0
2018-Feb-19 18:52N 29°44' W 095°01'0 0.0
2018-Feb-19 18:30N 29°44' W 095°01'0 0.0
2018-Feb-19 17:59N 29°44' W 095°01'0 0.0
2018-Feb-19 17:29N 29°44' W 095°01'0 0.0
2018-Feb-19 16:59N 29°44' W 095°01'0 0.0
2018-Feb-19 16:28N 29°44' W 095°01'0 0.0
2018-Feb-19 15:54N 29°44' W 095°01'0 0.2
2018-Feb-19 15:30N 29°44' W 095°01'0 0.1
2018-Feb-19 13:56N 29°44' W 095°01'0 0.0
2018-Feb-19 11:14N 29°44' W 095°01'0 0.0
2018-Feb-19 10:47N 29°44' W 095°01'0 0.0
2018-Feb-19 10:30N 29°44' W 095°01'0 0.0
2018-Feb-19 09:58N 29°44' W 095°01'0 0.0
2018-Feb-19 09:29N 29°44' W 095°01'0 0.0
2018-Feb-19 09:00N 29°44' W 095°01'0 0.0
2018-Feb-19 08:30N 29°44' W 095°01'0 0.0
2018-Feb-19 08:00N 29°44' W 095°01'0 0.0
2018-Feb-19 07:30N 29°44' W 095°01'0 0.0
2018-Feb-19 07:00N 29°44' W 095°01'0 0.0
2018-Feb-19 06:30N 29°44' W 095°01'0 0.0
2018-Feb-19 06:00N 29°44' W 095°01'0 0.0
2018-Feb-19 05:30N 29°44' W 095°01'0 0.0
2018-Feb-19 04:59N 29°44' W 095°01'1 0.1
2018-Feb-18 19:55N 29°44' W 095°02'3 6.8
2018-Feb-18 19:25N 29°46' W 095°05'1 0.4
2018-Feb-18 17:00N 29°46' W 095°06'0 0.0
2018-Feb-18 16:15N 29°46' W 095°06'0 0.0
2018-Feb-18 15:57N 29°46' W 095°06'0 0.0
2018-Feb-18 15:30N 29°46' W 095°06'0 0.0
2018-Feb-18 14:50N 29°46' W 095°06'0 0.0
2018-Feb-18 14:27N 29°46' W 095°06'2 4.2
2018-Feb-18 14:00N 29°47' W 095°04'1 0.3
2018-Feb-18 09:14N 29°46' W 095°05'1 5.4
2018-Feb-18 09:00N 29°45' W 095°04'2 0.3
2018-Feb-18 00:23N 29°44' W 095°01'0 0.0
2018-Feb-17 08:03N 29°44' W 095°01'0 0.0
2018-Feb-17 08:00N 29°44' W 095°01'0 0.1
2018-Feb-17 03:55N 29°44' W 095°01'0 0.6
2018-Feb-17 03:29N 29°44' W 095°01'0 0.2
2018-Feb-17 03:00N 29°44' W 095°01'0 0.3
2018-Feb-17 02:25N 29°44' W 095°01'0 0.9
2018-Feb-17 02:00N 29°43' W 095°01'1 0.1
2018-Feb-16 18:43N 29°44' W 095°01'0 0.0
2018-Feb-16 18:27N 29°44' W 095°01'0 0.0
2018-Feb-16 18:00N 29°44' W 095°01'0 0.0
2018-Feb-16 17:28N 29°44' W 095°01'0 0.0
2018-Feb-16 16:59N 29°44' W 095°01'0 0.0
2018-Feb-16 16:24N 29°44' W 095°01'0 0.0
2018-Feb-16 16:00N 29°44' W 095°01'0 0.0
2018-Feb-16 15:30N 29°44' W 095°01'0 0.0
2018-Feb-16 14:41N 29°44' W 095°01'1 0.1
2018-Feb-16 05:15N 29°43' W 095°01'0 0.1
2018-Feb-16 04:30N 29°44' W 095°01'3 6.6
2018-Feb-16 04:00N 29°46' W 095°04'2 3.9
2018-Feb-16 03:30N 29°47' W 095°04'0 0.4
2018-Feb-16 03:00N 29°47' W 095°04'0 0.0
2018-Feb-16 02:28N 29°47' W 095°04'0 0.0
2018-Feb-16 01:56N 29°47' W 095°04'0 0.2
2018-Feb-16 01:14N 29°47' W 095°04'3 0.6
2018-Feb-15 19:33N 29°45' W 095°06'1 0.2
2018-Feb-15 14:56N 29°45' W 095°06'1 0.4
2018-Feb-15 12:32N 29°46' W 095°06'1 0.7
2018-Feb-15 11:11N 29°46' W 095°05'1 6.5
2018-Feb-15 10:58N 29°47' W 095°05'1 0.6
2018-Feb-15 09:13N 29°47' W 095°04'0 1.1
2018-Feb-15 08:55N 29°47' W 095°04'1 1.4
2018-Feb-15 08:05N 29°46' W 095°05'0 0.0
2018-Feb-15 07:58N 29°46' W 095°05'0 0.0
2018-Feb-15 07:26N 29°46' W 095°05'0 0.0
2018-Feb-15 06:57N 29°46' W 095°05'0 0.0
2018-Feb-15 06:29N 29°46' W 095°05'0 0.0
2018-Feb-15 06:00N 29°46' W 095°05'0 0.0
2018-Feb-15 05:30N 29°46' W 095°05'0 0.0
2018-Feb-15 04:56N 29°46' W 095°05'0 0.0
2018-Feb-15 04:27N 29°46' W 095°05'0 0.1
2018-Feb-15 03:56N 29°46' W 095°05'0 0.1
2018-Feb-15 03:30N 29°46' W 095°05'0 0.0
2018-Feb-15 02:55N 29°46' W 095°05'1 0.2
2018-Feb-14 19:15N 29°47' W 095°04'4 0.2
2018-Feb-13 23:43N 29°44' W 095°07'2 0.1
2018-Feb-12 22:26N 29°46' W 095°06'0 0.0
2018-Feb-12 18:50N 29°46' W 095°06'0 0.0
2018-Feb-12 18:30N 29°46' W 095°06'0 0.0
2018-Feb-12 17:59N 29°46' W 095°06'0 0.0
2018-Feb-12 17:30N 29°46' W 095°06'0 0.0
2018-Feb-12 17:00N 29°46' W 095°06'0 0.0
2018-Feb-12 16:30N 29°46' W 095°06'0 0.0
2018-Feb-12 16:00N 29°46' W 095°06'1 0.5
2018-Feb-12 14:27N 29°46' W 095°05'0 0.1
2018-Feb-12 11:46N 29°46' W 095°06'1 0.6
2018-Feb-12 09:59N 29°46' W 095°05'3 5.3
2018-Feb-12 09:30N 29°44' W 095°02'2 5.0
2018-Feb-12 09:00N 29°42' W 095°00'3 5.3
2018-Feb-12 08:30N 29°40' W 094°59'3 6.4
2018-Feb-12 08:00N 29°37' W 094°58'3 5.7
2018-Feb-12 07:30N 29°37' W 095°01'0 0.5
2018-Feb-12 06:53N 29°37' W 095°01'0 0.0
2018-Feb-12 06:30N 29°37' W 095°01'0 0.0
2018-Feb-12 06:00N 29°37' W 095°01'0 0.0
2018-Feb-12 05:28N 29°37' W 095°01'0 0.0
2018-Feb-12 04:55N 29°37' W 095°01'0 0.0
2018-Feb-12 04:30N 29°37' W 095°01'0 0.0
2018-Feb-12 03:50N 29°37' W 095°01'0 0.0
2018-Feb-12 03:30N 29°37' W 095°01'0 0.0
2018-Feb-12 03:00N 29°37' W 095°01'0 0.0
2018-Feb-12 02:30N 29°37' W 095°01'0 0.0
2018-Feb-12 01:58N 29°37' W 095°01'0 0.0
2018-Feb-12 01:30N 29°37' W 095°01'0 0.0
2018-Feb-12 01:00N 29°37' W 095°01'0 0.0
2018-Feb-12 00:29N 29°37' W 095°01'  
Track history (hours):
 
Tides and Currents Weather Stations Pressure Air Temp Water Temp Dewpoint Dewpoint Depression Visibility Wind Speed Wind Dir Waves Ship Positions

Bl Darnell

Owner: The Tug BL Darnell, L.L.C., Channelview, TX. More information available from US FCC via Universal Licensing System and Coast Guard Vessel Documentation Center.

Last reported at 2018-Feb-22 00:24 UTC. Time now 2018-Feb-22 04:20 UTC.
Position N 29°46' W 095°05'.

Length 22 m.

Type: Other ship. MMSI: 367362460.

Date/timePositionNaut miles runAvg speedWind from/ knotsBaromVisibWave heightAir tempDewpointWater temp
2018-Feb-22 00:24N 29°46' W 095°05'2 4.9
2018-Feb-22 00:00N 29°44' W 095°03'2 4.6
2018-Feb-21 23:30N 29°43' W 095°01'3 5.1
2018-Feb-21 23:00N 29°41' W 094°59'0 0.8
2018-Feb-21 22:30N 29°41' W 094°58'0 0.1
2018-Feb-21 22:00N 29°41' W 094°59'3 0.2
2018-Feb-21 07:57N 29°43' W 094°56'1 0.4
2018-Feb-21 06:13N 29°43' W 094°57'1 2.6
2018-Feb-21 05:59N 29°43' W 094°56'1 2.0
2018-Feb-21 05:29N 29°42' W 094°56'1 1.2
2018-Feb-21 05:00N 29°42' W 094°55'1 2.6
2018-Feb-21 04:29N 29°41' W 094°56'2 3.5
2018-Feb-21 03:50N 29°41' W 094°59'1 3.3
2018-Feb-21 03:30N 29°42' W 094°60'2 3.6
2018-Feb-21 03:00N 29°43' W 095°01'2 4.1
2018-Feb-21 02:26N 29°44' W 095°04'9 1.5
2018-Feb-20 20:31N 29°43' W 095°14'0 6.1
2018-Feb-20 20:29N 29°44' W 095°14'3 5.9
2018-Feb-20 19:59N 29°45' W 095°11'3 6.4
2018-Feb-20 19:29N 29°44' W 095°07'4 4.6
2018-Feb-20 18:36N 29°47' W 095°04'0 0.0
2018-Feb-20 18:21N 29°47' W 095°04'0 0.0
2018-Feb-20 17:43N 29°47' W 095°04'0 0.0
2018-Feb-20 17:24N 29°47' W 095°04'2 2.9
2018-Feb-20 16:36N 29°46' W 095°06'0 0.1
2018-Feb-20 16:30N 29°46' W 095°06'0 0.0
2018-Feb-20 15:53N 29°46' W 095°06'0 0.0
2018-Feb-20 15:30N 29°46' W 095°06'0 0.0
2018-Feb-20 14:51N 29°46' W 095°06'0 0.0
2018-Feb-20 14:25N 29°46' W 095°06'0 0.0
2018-Feb-20 13:56N 29°46' W 095°06'0 0.0
2018-Feb-20 13:28N 29°46' W 095°06'0 0.0
2018-Feb-20 08:20N 29°46' W 095°06'0 0.0
2018-Feb-20 07:56N 29°46' W 095°06'0 0.0
2018-Feb-20 07:29N 29°46' W 095°06'0 0.0
2018-Feb-20 07:00N 29°46' W 095°06'0 0.0
2018-Feb-20 06:30N 29°46' W 095°06'0 0.0
2018-Feb-20 05:59N 29°46' W 095°06'0 0.0
2018-Feb-20 05:30N 29°46' W 095°06'0 0.0
2018-Feb-20 05:00N 29°46' W 095°06'0 0.0
2018-Feb-20 04:30N 29°46' W 095°06'0 0.0
2018-Feb-20 03:58N 29°46' W 095°06'0 0.0
2018-Feb-20 03:30N 29°46' W 095°06'0 0.0
2018-Feb-20 02:58N 29°46' W 095°06'0 0.0
2018-Feb-20 02:30N 29°46' W 095°06'0 0.0
2018-Feb-20 01:56N 29°46' W 095°06'0 0.0
2018-Feb-20 01:30N 29°46' W 095°06'0 0.0
2018-Feb-20 00:59N 29°46' W 095°06'0 0.0
2018-Feb-19 23:16N 29°46' W 095°06'0 0.0
2018-Feb-19 22:59N 29°46' W 095°06'0 0.0
2018-Feb-19 22:30N 29°46' W 095°06'1 1.3
2018-Feb-19 21:23N 29°46' W 095°05'2 4.9
2018-Feb-19 21:00N 29°44' W 095°03'2 3.5
2018-Feb-19 20:30N 29°44' W 095°01'0 0.0
2018-Feb-19 19:56N 29°44' W 095°01'0 0.0
2018-Feb-19 18:52N 29°44' W 095°01'0 0.0
2018-Feb-19 18:30N 29°44' W 095°01'0 0.0
2018-Feb-19 17:59N 29°44' W 095°01'0 0.0
2018-Feb-19 17:29N 29°44' W 095°01'0 0.0
2018-Feb-19 16:59N 29°44' W 095°01'0 0.0
2018-Feb-19 16:28N 29°44' W 095°01'0 0.0
2018-Feb-19 15:54N 29°44' W 095°01'0 0.2
2018-Feb-19 15:30N 29°44' W 095°01'0 0.1
2018-Feb-19 13:56N 29°44' W 095°01'0 0.0
2018-Feb-19 11:14N 29°44' W 095°01'0 0.0
2018-Feb-19 10:47N 29°44' W 095°01'0 0.0
2018-Feb-19 10:30N 29°44' W 095°01'0 0.0
2018-Feb-19 09:58N 29°44' W 095°01'0 0.0
2018-Feb-19 09:29N 29°44' W 095°01'0 0.0
2018-Feb-19 09:00N 29°44' W 095°01'0 0.0
2018-Feb-19 08:30N 29°44' W 095°01'0 0.0
2018-Feb-19 08:00N 29°44' W 095°01'0 0.0
2018-Feb-19 07:30N 29°44' W 095°01'0 0.0
2018-Feb-19 07:00N 29°44' W 095°01'0 0.0
2018-Feb-19 06:30N 29°44' W 095°01'0 0.0
2018-Feb-19 06:00N 29°44' W 095°01'0 0.0
2018-Feb-19 05:30N 29°44' W 095°01'0 0.0
2018-Feb-19 04:59N 29°44' W 095°01'1 0.1
2018-Feb-18 19:55N 29°44' W 095°02'3 6.8
2018-Feb-18 19:25N 29°46' W 095°05'1 0.4
2018-Feb-18 17:00N 29°46' W 095°06'0 0.0
2018-Feb-18 16:15N 29°46' W 095°06'0 0.0
2018-Feb-18 15:57N 29°46' W 095°06'0 0.0
2018-Feb-18 15:30N 29°46' W 095°06'0 0.0
2018-Feb-18 14:50N 29°46' W 095°06'0 0.0
2018-Feb-18 14:27N 29°46' W 095°06'2 4.2
2018-Feb-18 14:00N 29°47' W 095°04'1 0.3
2018-Feb-18 09:14N 29°46' W 095°05'1 5.4
2018-Feb-18 09:00N 29°45' W 095°04'2 0.3
2018-Feb-18 00:23N 29°44' W 095°01'0 0.0
2018-Feb-17 08:03N 29°44' W 095°01'0 0.0
2018-Feb-17 08:00N 29°44' W 095°01'0 0.1
2018-Feb-17 03:55N 29°44' W 095°01'0 0.6
2018-Feb-17 03:29N 29°44' W 095°01'0 0.2
2018-Feb-17 03:00N 29°44' W 095°01'0 0.3
2018-Feb-17 02:25N 29°44' W 095°01'0 0.9
2018-Feb-17 02:00N 29°43' W 095°01'1 0.1
2018-Feb-16 18:43N 29°44' W 095°01'0 0.0
2018-Feb-16 18:27N 29°44' W 095°01'0 0.0
2018-Feb-16 18:00N 29°44' W 095°01'0 0.0
2018-Feb-16 17:28N 29°44' W 095°01'0 0.0
2018-Feb-16 16:59N 29°44' W 095°01'0 0.0
2018-Feb-16 16:24N 29°44' W 095°01'0 0.0
2018-Feb-16 16:00N 29°44' W 095°01'0 0.0
2018-Feb-16 15:30N 29°44' W 095°01'0 0.0
2018-Feb-16 14:41N 29°44' W 095°01'1 0.1
2018-Feb-16 05:15N 29°43' W 095°01'0 0.1
2018-Feb-16 04:30N 29°44' W 095°01'3 6.6
2018-Feb-16 04:00N 29°46' W 095°04'2 3.9
2018-Feb-16 03:30N 29°47' W 095°04'0 0.4
2018-Feb-16 03:00N 29°47' W 095°04'0 0.0
2018-Feb-16 02:28N 29°47' W 095°04'0 0.0
2018-Feb-16 01:56N 29°47' W 095°04'0 0.2
2018-Feb-16 01:14N 29°47' W 095°04'3 0.6
2018-Feb-15 19:33N 29°45' W 095°06'1 0.2
2018-Feb-15 14:56N 29°45' W 095°06'1 0.4
2018-Feb-15 12:32N 29°46' W 095°06'1 0.7
2018-Feb-15 11:11N 29°46' W 095°05'1 6.5
2018-Feb-15 10:58N 29°47' W 095°05'1 0.6
2018-Feb-15 09:13N 29°47' W 095°04'0 1.1
2018-Feb-15 08:55N 29°47' W 095°04'1 1.4
2018-Feb-15 08:05N 29°46' W 095°05'0 0.0
2018-Feb-15 07:58N 29°46' W 095°05'0 0.0
2018-Feb-15 07:26N 29°46' W 095°05'0 0.0
2018-Feb-15 06:57N 29°46' W 095°05'0 0.0
2018-Feb-15 06:29N 29°46' W 095°05'0 0.0
2018-Feb-15 06:00N 29°46' W 095°05'0 0.0
2018-Feb-15 05:30N 29°46' W 095°05'0 0.0
2018-Feb-15 04:56N 29°46' W 095°05'0 0.0
2018-Feb-15 04:27N 29°46' W 095°05'0 0.1
2018-Feb-15 03:56N 29°46' W 095°05'0 0.1
2018-Feb-15 03:30N 29°46' W 095°05'0 0.0
2018-Feb-15 02:55N 29°46' W 095°05'1 0.2
2018-Feb-14 19:15N 29°47' W 095°04'4 0.2
2018-Feb-13 23:43N 29°44' W 095°07'2 0.1
2018-Feb-12 22:26N 29°46' W 095°06'0 0.0
2018-Feb-12 18:50N 29°46' W 095°06'0 0.0
2018-Feb-12 18:30N 29°46' W 095°06'0 0.0
2018-Feb-12 17:59N 29°46' W 095°06'0 0.0
2018-Feb-12 17:30N 29°46' W 095°06'0 0.0
2018-Feb-12 17:00N 29°46' W 095°06'0 0.0
2018-Feb-12 16:30N 29°46' W 095°06'0 0.0
2018-Feb-12 16:00N 29°46' W 095°06'1 0.5
2018-Feb-12 14:27N 29°46' W 095°05'0 0.1
2018-Feb-12 11:46N 29°46' W 095°06'1 0.6
2018-Feb-12 09:59N 29°46' W 095°05'3 5.3
2018-Feb-12 09:30N 29°44' W 095°02'2 5.0
2018-Feb-12 09:00N 29°42' W 095°00'3 5.3
2018-Feb-12 08:30N 29°40' W 094°59'3 6.4
2018-Feb-12 08:00N 29°37' W 094°58'3 5.7
2018-Feb-12 07:30N 29°37' W 095°01'0 0.5
2018-Feb-12 06:53N 29°37' W 095°01'0 0.0
2018-Feb-12 06:30N 29°37' W 095°01'0 0.0
2018-Feb-12 06:00N 29°37' W 095°01'0 0.0
2018-Feb-12 05:28N 29°37' W 095°01'0 0.0
2018-Feb-12 04:55N 29°37' W 095°01'0 0.0
2018-Feb-12 04:30N 29°37' W 095°01'0 0.0
2018-Feb-12 03:50N 29°37' W 095°01'0 0.0
2018-Feb-12 03:30N 29°37' W 095°01'0 0.0
2018-Feb-12 03:00N 29°37' W 095°01'0 0.0
2018-Feb-12 02:30N 29°37' W 095°01'0 0.0
2018-Feb-12 01:58N 29°37' W 095°01'0 0.0
2018-Feb-12 01:30N 29°37' W 095°01'0 0.0
2018-Feb-12 01:00N 29°37' W 095°01'0 0.0
2018-Feb-12 00:29N 29°37' W 095°01'  

Dump ship's entire track history